Time,TemperatureF,DewpointF,PressureIn,WindDirection,WindDirectionDegrees,WindSpeedMPH,WindSpeedGustMPH,Humidity,HourlyPrecipIn,Conditions,Clouds,dailyrainin,SoftwareType,DateUTC
2013-03-03 00:03:00,36.9,9.0,29.80,WNW,292,6.2,10.0,31,0.00,CLR,,0.00,WeatherDisplay:10.37,2013-03-03 06:03:00,
2013-03-03 00:08:00,36.9,9.0,29.80,NW,315,5.9,10.7,31,0.00,CLR,,0.00,WeatherDisplay:10.37,2013-03-03 06:08:00,
2013-03-03 00:13:00,36.9,9.0,29.80,NNW,338,6.0,9.2,31,0.00,CLR,,0.00,WeatherDisplay:10.37,2013-03-03 06:13:00,
2013-03-03 00:18:00,36.9,9.0,29.80,NNW,338,8.7,11.5,31,0.00,CLR,,0.00,WeatherDisplay:10.37,2013-03-03 06:18:00,
2013-03-03 00:23:00,36.7,8.8,29.80,NW,315,7.1,10.4,31,0.00,CLR,,0.00,WeatherDisplay:10.37,2013-03-03 06:23:00,
2013-03-03 00:28:00,36.7,8.8,29.80,North,0,7.1,9.2,31,0.00,CLR,,0.00,WeatherDisplay:10.37,2013-03-03 06:28:00,
2013-03-03 00:33:00,36.7,8.8,29.80,WNW,292,7.4,9.2,31,0.00,CLR,,0.00,WeatherDisplay:10.37,2013-03-03 06:33:00,
2013-03-03 00:38:00,36.7,8.8,29.80,NW,315,5.9,9.2,31,0.00,CLR,,0.00,WeatherDisplay:10.37,2013-03-03 06:38:00,
2013-03-03 00:43:00,36.7,8.8,29.80,NW,315,4.5,6.9,31,0.00,CLR,,0.00,WeatherDisplay:10.37,2013-03-03 06:43:00,
2013-03-03 00:48:00,36.5,8.7,29.80,North,0,6.9,7.6,31,0.00,CLR,,0.00,WeatherDisplay:10.37,2013-03-03 06:48:00,
2013-03-03 00:53:00,36.5,8.7,29.80,North,0,4.7,6.9,31,0.00,CLR,,0.00,WeatherDisplay:10.37,2013-03-03 06:53:00,
2013-03-03 00:58:00,36.5,8.7,29.80,WNW,292,4.9,6.2,31,0.00,CLR,,0.00,WeatherDisplay:10.37,2013-03-03 06:58:00,
2013-03-03 01:03:00,36.5,8.7,29.80,North,0,7.1,8.5,31,0.00,CLR,,0.00,WeatherDisplay:10.37,2013-03-03 07:03:00,
2013-03-03 01:08:00,36.3,7.8,29.80,North,0,7.6,10.4,30,0.00,CLR,,0.00,WeatherDisplay:10.37,2013-03-03 07:08:00,
2013-03-03 01:13:00,36.3,7.8,29.80,WNW,292,7.4,13.8,30,0.00,CLR,,0.00,WeatherDisplay:10.37,2013-03-03 07:13:00,
2013-03-03 01:18:00,36.1,7.6,29.80,NNW,338,7.4,12.7,30,0.00,CLR,,0.00,WeatherDisplay:10.37,2013-03-03 07:18:00,
2013-03-03 01:23:00,35.8,7.3,29.80,NNW,338,4.0,5.6,30,0.00,CLR,,0.00,WeatherDisplay:10.37,2013-03-03 07:23:00,
2013-03-03 01:28:00,35.4,7.7,29.80,North,0,4.9,6.9,31,0.00,CLR,,0.00,WeatherDisplay:10.37,2013-03-03 07:28:00,
2013-03-03 01:33:00,35.2,7.6,29.80,North,0,6.0,8.1,31,0.00,CLR,,0.00,WeatherDisplay:10.37,2013-03-03 07:33:00,
2013-03-03 01:38:00,35.4,7.7,29.80,North,0,5.4,8.1,31,0.00,CLR,,0.00,WeatherDisplay:10.37,2013-03-03 07:38:00,
2013-03-03 01:43:00,35.1,7.4,29.80,North,0,6.0,8.1,31,0.00,CLR,,0.00,WeatherDisplay:10.37,2013-03-03 07:43:00,
2013-03-03 01:48:00,35.1,7.4,29.80,NW,315,4.3,4.6,31,0.00,CLR,,0.00,WeatherDisplay:10.37,2013-03-03 07:48:00,
2013-03-03 01:53:00,34.9,7.3,29.80,NNW,338,2.6,5.8,31,0.00,CLR,,0.00,WeatherDisplay:10.37,2013-03-03 07:53:00,
2013-03-03 01:58:00,34.7,7.1,29.80,NW,315,3.3,4.7,31,0.00,CLR,,0.00,WeatherDisplay:10.37,2013-03-03 07:58:00,
2013-03-03 02:03:00,34.3,6.8,29.80,NNW,338,2.9,4.6,31,0.00,CLR,,0.00,WeatherDisplay:10.37,2013-03-03 08:03:00,
2013-03-03 02:08:00,34.2,6.6,29.80,NNW,338,4.3,5.8,31,0.00,CLR,,0.00,WeatherDisplay:10.37,2013-03-03 08:08:00,
2013-03-03 02:13:00,34.0,6.5,29.80,NW,315,3.8,4.9,31,0.00,CLR,,0.00,WeatherDisplay:10.37,2013-03-03 08:13:00,
2013-03-03 02:18:00,33.8,7.0,29.80,WNW,292,2.9,3.8,32,0.00,CLR,,0.00,WeatherDisplay:10.37,2013-03-03 08:18:00,
2013-03-03 02:23:00,33.4,6.7,29.80,WNW,292,3.3,4.6,32,0.00,CLR,,0.00,WeatherDisplay:10.37,2013-03-03 08:23:00,
2013-03-03 02:28:00,33.3,6.5,29.80,NW,315,2.2,3.5,32,0.00,CLR,,0.00,WeatherDisplay:10.37,2013-03-03 08:28:00,
2013-03-03 02:33:00,33.3,7.2,29.77,WNW,292,2.2,2.9,33,0.00,CLR,,0.00,WeatherDisplay:10.37,2013-03-03 08:33:00,
2013-03-03 02:38:00,33.1,7.1,29.77,WNW,292,2.6,2.9,33,0.00,CLR,,0.00,WeatherDisplay:10.37,2013-03-03 08:38:00,
2013-03-03 02:43:00,32.9,6.9,29.77,NW,315,3.6,4.6,33,0.00,CLR,,0.00,WeatherDisplay:10.37,2013-03-03 08:43:00,
2013-03-03 02:48:00,32.5,7.2,29.80,WNW,292,3.6,4.6,34,0.00,CLR,,0.00,WeatherDisplay:10.37,2013-03-03 08:48:00,
2013-03-03 02:53:00,32.5,7.2,29.80,NW,315,1.6,3.5,34,0.00,CLR,,0.00,WeatherDisplay:10.37,2013-03-03 08:53:00,
2013-03-03 02:59:00,32.4,7.1,29.80,NNW,338,1.1,2.3,34,0.00,CLR,,0.00,WeatherDisplay:10.37,2013-03-03 08:59:00,
2013-03-03 03:03:00,32.2,6.9,29.77,NW,315,2.4,2.6,34,0.00,CLR,,0.00,WeatherDisplay:10.37,2013-03-03 09:03:00,
2013-03-03 03:08:00,32.0,7.4,29.77,NW,315,2.0,2.9,35,0.00,CLR,,0.00,WeatherDisplay:10.37,2013-03-03 09:08:00,
2013-03-03 03:13:00,31.8,7.2,29.77,NW,315,1.6,2.6,35,0.00,CLR,,0.00,WeatherDisplay:10.37,2013-03-03 09:13:00,
2013-03-03 03:18:00,31.6,7.7,29.77,NNW,338,2.0,3.5,36,0.00,CLR,,0.00,WeatherDisplay:10.37,2013-03-03 09:18:00,
2013-03-03 03:23:00,31.8,7.9,29.77,NNW,338,2.6,3.5,36,0.00,CLR,,0.00,WeatherDisplay:10.37,2013-03-03 09:23:00,
2013-03-03 03:28:00,31.6,7.7,29.77,NNW,338,2.4,3.1,36,0.00,CLR,,0.00,WeatherDisplay:10.37,2013-03-03 09:28:00,
2013-03-03 03:33:00,31.5,8.1,29.77,NW,315,2.4,2.6,37,0.00,CLR,,0.00,WeatherDisplay:10.37,2013-03-03 09:33:00,
2013-03-03 03:38:00,31.5,8.1,29.77,WNW,292,2.2,2.4,37,0.00,CLR,,0.00,WeatherDisplay:10.37,2013-03-03 09:38:00,
2013-03-03 03:43:00,31.3,8.6,29.77,WNW,292,2.4,2.9,38,0.00,CLR,,0.00,WeatherDisplay:10.37,2013-03-03 09:43:00,
2013-03-03 03:48:00,31.1,7.8,29.77,NW,315,1.4,2.4,37,0.00,CLR,,0.00,WeatherDisplay:10.37,2013-03-03 09:48:00,
2013-03-03 03:53:00,31.1,8.4,29.77,NNW,338,1.6,2.6,38,0.00,CLR,,0.00,WeatherDisplay:10.37,2013-03-03 09:53:00,
2013-03-03 03:58:00,30.7,7.5,29.77,NNW,338,1.4,2.3,37,0.00,CLR,,0.00,WeatherDisplay:10.37,2013-03-03 09:58:00,
2013-03-03 04:03:00,30.6,7.9,29.77,NW,315,2.4,2.9,38,0.00,CLR,,0.00,WeatherDisplay:10.37,2013-03-03 10:03:00,
2013-03-03 04:08:00,30.6,7.9,29.77,WNW,292,2.6,3.5,38,0.00,CLR,,0.00,WeatherDisplay:10.37,2013-03-03 10:08:00,
2013-03-03 04:13:00,30.4,8.3,29.77,NW,315,2.2,2.9,39,0.00,CLR,,0.00,WeatherDisplay:10.37,2013-03-03 10:13:00,
2013-03-03 04:18:00,30.4,8.3,29.77,NW,315,1.4,1.6,39,0.00,CLR,,0.00,WeatherDisplay:10.37,2013-03-03 10:18:00,
2013-03-03 04:23:00,30.2,8.7,29.77,WNW,292,2.0,2.4,40,0.00,CLR,,0.00,WeatherDisplay:10.37,2013-03-03 10:23:00,
2013-03-03 04:28:00,30.0,8.6,29.77,NNW,338,2.0,2.4,40,0.00,CLR,,0.00,WeatherDisplay:10.37,2013-03-03 10:28:00,
2013-03-03 04:33:00,30.0,9.1,29.77,NW,315,2.0,2.6,41,0.00,CLR,,0.00,WeatherDisplay:10.37,2013-03-03 10:33:00,
2013-03-03 04:38:00,29.7,8.8,29.77,NW,315,2.4,2.6,41,0.00,CLR,,0.00,WeatherDisplay:10.37,2013-03-03 10:38:00,
2013-03-03 04:44:00,29.5,8.6,29.77,NW,315,2.6,3.5,41,0.00,CLR,,0.00,WeatherDisplay:10.37,2013-03-03 10:44:00,
2013-03-03 04:50:00,29.5,9.2,29.77,NNW,338,3.3,4.3,42,0.00,CLR,,0.00,WeatherDisplay:10.37,2013-03-03 10:50:00,
2013-03-03 04:55:00,29.3,9.0,29.77,WNW,292,2.6,4.3,42,0.00,CLR,,0.00,WeatherDisplay:10.37,2013-03-03 10:55:00,
2013-03-03 05:00:00,29.1,8.8,29.77,West,270,2.9,3.8,42,0.00,CLR,,0.00,WeatherDisplay:10.37,2013-03-03 11:00:00,
2013-03-03 05:05:00,28.9,8.7,29.77,NW,315,2.2,3.1,42,0.00,CLR,,0.00,WeatherDisplay:10.37,2013-03-03 11:05:00,
2013-03-03 05:10:00,28.9,8.7,29.77,West,270,2.0,2.3,42,0.00,CLR,,0.00,WeatherDisplay:10.37,2013-03-03 11:10:00,
2013-03-03 05:15:00,28.8,8.5,29.77,WNW,292,2.4,2.6,42,0.00,CLR,,0.00,WeatherDisplay:10.37,2013-03-03 11:15:00,
2013-03-03 05:20:00,28.6,8.4,29.80,NW,315,1.6,2.3,42,0.00,CLR,,0.00,WeatherDisplay:10.37,2013-03-03 11:20:00,
2013-03-03 05:26:00,28.6,8.9,29.80,NW,315,2.0,2.4,43,0.00,CLR,,0.00,WeatherDisplay:10.37,2013-03-03 11:26:00,
2013-03-03 05:31:00,28.4,8.7,29.80,WNW,292,2.9,3.5,43,0.00,CLR,,0.00,WeatherDisplay:10.37,2013-03-03 11:31:00,
2013-03-03 05:36:00,28.2,8.6,29.80,West,270,2.6,2.9,43,0.00,CLR,,0.00,WeatherDisplay:10.37,2013-03-03 11:36:00,
2013-03-03 05:41:00,28.0,8.4,29.80,WNW,292,2.4,3.1,43,0.00,CLR,,0.00,WeatherDisplay:10.37,2013-03-03 11:41:00,
2013-03-03 05:46:00,28.0,8.9,29.80,WNW,292,2.0,2.6,44,0.00,CLR,,0.00,WeatherDisplay:10.37,2013-03-03 11:46:00,
2013-03-03 05:51:00,28.0,8.9,29.80,NW,315,2.2,2.9,44,0.00,CLR,,0.00,WeatherDisplay:10.37,2013-03-03 11:51:00,
2013-03-03 05:56:00,27.9,8.7,29.80,WNW,292,1.4,2.3,44,0.00,CLR,,0.00,WeatherDisplay:10.37,2013-03-03 11:56:00,
2013-03-03 06:01:00,27.9,9.2,29.80,NNW,338,2.2,2.6,45,0.00,CLR,,0.00,WeatherDisplay:10.37,2013-03-03 12:01:00,
2013-03-03 06:06:00,27.9,9.2,29.80,WNW,292,1.6,2.4,45,0.00,CLR,,0.00,WeatherDisplay:10.37,2013-03-03 12:06:00,
2013-03-03 06:11:00,27.9,9.7,29.80,NNW,338,2.2,2.6,46,0.00,CLR,,0.00,WeatherDisplay:10.37,2013-03-03 12:11:00,
2013-03-03 06:16:00,27.9,10.2,29.80,WNW,292,3.1,4.0,47,0.00,CLR,,0.00,WeatherDisplay:10.37,2013-03-03 12:16:00,
2013-03-03 06:21:00,28.0,9.9,29.80,NW,315,1.6,3.5,46,0.00,CLR,,0.00,WeatherDisplay:10.37,2013-03-03 12:21:00,
2013-03-03 06:26:00,28.0,10.4,29.80,WNW,292,3.6,5.8,47,0.00,CLR,,0.00,WeatherDisplay:10.37,2013-03-03 12:26:00,
2013-03-03 06:31:00,28.2,10.5,29.80,WNW,292,2.2,4.0,47,0.00,CLR,,0.00,WeatherDisplay:10.37,2013-03-03 12:31:00,
2013-03-03 06:36:00,28.4,10.2,29.83,WNW,292,2.0,3.5,46,0.00,CLR,,0.00,WeatherDisplay:10.37,2013-03-03 12:36:00,
2013-03-03 06:41:00,28.6,10.4,29.83,WNW,292,2.4,3.5,46,0.00,CLR,,0.00,WeatherDisplay:10.37,2013-03-03 12:41:00,
2013-03-03 06:46:00,28.6,10.4,29.83,NNW,338,3.3,3.8,46,0.00,CLR,,0.00,WeatherDisplay:10.37,2013-03-03 12:46:00,
2013-03-03 06:51:00,28.9,10.7,29.83,WNW,292,2.6,3.5,46,0.00,CLR,,0.00,WeatherDisplay:10.37,2013-03-03 12:51:00,
2013-03-03 06:56:00,29.1,10.9,29.83,NNW,338,3.1,3.8,46,0.00,CLR,,0.00,WeatherDisplay:10.37,2013-03-03 12:56:00,
2013-03-03 07:01:00,29.5,11.2,29.83,North,0,2.4,3.8,46,0.00,CLR,,0.00,WeatherDisplay:10.37,2013-03-03 13:01:00,
2013-03-03 07:06:00,29.8,11.5,29.83,NNW,338,2.2,3.5,46,0.00,CLR,,0.00,WeatherDisplay:10.37,2013-03-03 13:06:00,
2013-03-03 07:11:00,29.8,11.5,29.83,NNW,338,3.3,3.8,46,0.00,CLR,,0.00,WeatherDisplay:10.37,2013-03-03 13:11:00,
2013-03-03 07:16:00,30.6,11.7,29.83,NNW,338,3.1,4.5,45,0.00,CLR,,0.00,WeatherDisplay:10.37,2013-03-03 13:16:00,
2013-03-03 07:21:00,31.1,11.7,29.80,WNW,292,4.0,5.8,44,0.00,CLR,,0.00,WeatherDisplay:10.37,2013-03-03 13:21:00,
2013-03-03 07:26:00,31.5,11.5,29.80,North,0,6.0,6.9,43,0.00,CLR,,0.00,WeatherDisplay:10.37,2013-03-03 13:26:00,
2013-03-03 07:31:00,31.8,11.8,29.80,NNW,338,3.3,4.6,43,0.00,CLR,,0.00,WeatherDisplay:10.37,2013-03-03 13:31:00,
2013-03-03 07:36:00,32.7,12.7,29.83,WNW,292,3.6,5.8,43,0.00,CLR,,0.00,WeatherDisplay:10.37,2013-03-03 13:36:00,
2013-03-03 07:41:00,33.3,12.1,29.83,NW,315,6.2,10.9,41,0.00,CLR,,0.00,WeatherDisplay:10.37,2013-03-03 13:41:00,
2013-03-03 07:46:00,33.6,12.4,29.83,North,0,6.7,8.1,41,0.00,CLR,,0.00,WeatherDisplay:10.37,2013-03-03 13:46:00,
2013-03-03 07:51:00,33.8,12.0,29.83,North,0,7.6,12.7,40,0.00,CLR,,0.00,WeatherDisplay:10.37,2013-03-03 13:51:00,
2013-03-03 07:56:00,34.0,12.2,29.83,NNE,22,7.1,8.1,40,0.00,CLR,,0.00,WeatherDisplay:10.37,2013-03-03 13:56:00,
2013-03-03 08:01:00,34.3,12.5,29.83,WNW,292,6.9,11.5,40,0.00,CLR,,0.00,WeatherDisplay:10.37,2013-03-03 14:01:00,
2013-03-03 08:06:00,34.7,12.8,29.83,North,0,8.7,10.5,40,0.00,CLR,,0.00,WeatherDisplay:10.37,2013-03-03 14:06:00,
2013-03-03 08:11:00,35.1,13.1,29.83,North,0,6.4,10.7,40,0.00,CLR,,0.00,WeatherDisplay:10.37,2013-03-03 14:11:00,
2013-03-03 08:16:00,34.9,12.4,29.83,North,0,7.8,13.8,39,0.00,CLR,,0.00,WeatherDisplay:10.37,2013-03-03 14:16:00,
2013-03-03 08:21:00,35.2,12.1,29.85,NNW,338,6.2,7.8,38,0.00,CLR,,0.00,WeatherDisplay:10.37,2013-03-03 14:21:00,
2013-03-03 08:26:00,35.6,11.2,29.85,NNW,338,7.4,10.4,36,0.00,CLR,,0.00,WeatherDisplay:10.37,2013-03-03 14:26:00,
2013-03-03 08:31:00,36.0,11.6,29.85,North,0,7.6,8.1,36,0.00,CLR,,0.00,WeatherDisplay:10.37,2013-03-03 14:31:00,
2013-03-03 08:36:00,36.1,11.1,29.88,North,0,7.6,10.4,35,0.00,CLR,,0.00,WeatherDisplay:10.37,2013-03-03 14:36:00,
2013-03-03 08:41:00,36.3,11.2,29.88,WNW,292,8.7,10.5,35,0.00,CLR,,0.00,WeatherDisplay:10.37,2013-03-03 14:41:00,
2013-03-03 08:46:00,36.9,11.1,29.88,NW,315,7.8,10.4,34,0.00,CLR,,0.00,WeatherDisplay:10.37,2013-03-03 14:46:00,
2013-03-03 08:51:00,36.5,10.7,29.88,NW,315,7.4,10.4,34,0.00,CLR,,0.00,WeatherDisplay:10.37,2013-03-03 14:51:00,
2013-03-03 08:56:00,36.9,10.4,29.88,North,0,7.4,9.2,33,0.00,CLR,,0.00,WeatherDisplay:10.37,2013-03-03 14:56:00,
2013-03-03 09:01:00,37.4,10.2,29.88,North,0,7.8,10.4,32,0.00,CLR,,0.00,WeatherDisplay:10.37,2013-03-03 15:01:00,
2013-03-03 09:06:00,37.4,10.2,29.88,North,0,5.6,9.2,32,0.00,CLR,,0.00,WeatherDisplay:10.37,2013-03-03 15:06:00,
2013-03-03 09:11:00,37.6,10.3,29.88,North,0,6.0,8.1,32,0.00,CLR,,0.00,WeatherDisplay:10.37,2013-03-03 15:11:00,
2013-03-03 09:16:00,38.1,10.1,29.88,NNW,338,7.8,10.9,31,0.00,CLR,,0.00,WeatherDisplay:10.37,2013-03-03 15:16:00,
2013-03-03 09:21:00,37.9,9.9,29.88,NNW,338,5.9,9.2,31,0.00,CLR,,0.00,WeatherDisplay:10.37,2013-03-03 15:21:00,
2013-03-03 09:26:00,38.3,10.3,29.88,North,0,8.7,15.0,31,0.00,CLR,,0.00,WeatherDisplay:10.37,2013-03-03 15:26:00,
2013-03-03 09:31:00,38.7,10.6,29.88,North,0,6.7,7.6,31,0.00,CLR,,0.00,WeatherDisplay:10.37,2013-03-03 15:31:00,
2013-03-03 09:36:00,38.7,9.8,29.88,WNW,292,9.4,12.3,30,0.00,CLR,,0.00,WeatherDisplay:10.37,2013-03-03 15:36:00,
2013-03-03 09:41:00,38.5,9.7,29.88,North,0,11.8,18.4,30,0.00,CLR,,0.00,WeatherDisplay:10.37,2013-03-03 15:41:00,
2013-03-03 09:46:00,39.4,10.5,29.88,North,0,6.9,8.1,30,0.00,CLR,,0.00,WeatherDisplay:10.37,2013-03-03 15:46:00,
2013-03-03 09:51:00,39.6,9.9,29.85,WNW,292,5.6,13.2,29,0.00,CLR,,0.00,WeatherDisplay:10.37,2013-03-03 15:51:00,
2013-03-03 09:56:00,39.4,9.7,29.85,North,0,10.9,13.8,29,0.00,CLR,,0.00,WeatherDisplay:10.37,2013-03-03 15:56:00,
2013-03-03 10:01:00,39.6,9.9,29.85,NNW,338,9.4,12.7,29,0.00,CLR,,0.00,WeatherDisplay:10.37,2013-03-03 16:01:00,
2013-03-03 10:07:00,40.5,10.7,29.85,North,0,8.1,10.9,29,0.00,CLR,,0.00,WeatherDisplay:10.37,2013-03-03 16:07:00,
2013-03-03 10:12:00,39.9,10.2,29.85,NNW,338,6.2,7.1,29,0.00,CLR,,0.00,WeatherDisplay:10.37,2013-03-03 16:12:00,
2013-03-03 10:18:00,40.3,10.5,29.85,NNW,338,7.8,11.5,29,0.00,CLR,,0.00,WeatherDisplay:10.37,2013-03-03 16:18:00,
2013-03-03 10:24:00,40.5,10.7,29.85,North,0,10.5,21.9,29,0.00,CLR,,0.00,WeatherDisplay:10.37,2013-03-03 16:24:00,
2013-03-03 10:29:00,41.2,10.5,29.85,NNW,338,5.6,7.8,28,0.00,CLR,,0.00,WeatherDisplay:10.37,2013-03-03 16:29:00,
2013-03-03 10:34:00,41.2,10.5,29.83,NW,315,9.4,11.2,28,0.00,CLR,,0.00,WeatherDisplay:10.37,2013-03-03 16:34:00,
2013-03-03 10:39:00,41.2,10.5,29.83,NNW,338,6.9,10.4,28,0.00,CLR,,0.00,WeatherDisplay:10.37,2013-03-03 16:39:00,
2013-03-03 10:45:00,42.3,11.4,29.83,West,270,7.4,8.5,28,0.00,CLR,,0.00,WeatherDisplay:10.37,2013-03-03 16:45:00,
2013-03-03 10:50:00,42.3,11.4,29.83,NW,315,6.4,12.7,28,0.00,CLR,,0.00,WeatherDisplay:10.37,2013-03-03 16:50:00,
2013-03-03 10:55:00,42.8,11.9,29.83,North,0,5.9,10.4,28,0.00,CLR,,0.00,WeatherDisplay:10.37,2013-03-03 16:55:00,
2013-03-03 11:01:00,42.8,11.9,29.83,NW,315,6.9,13.8,28,0.00,CLR,,0.00,WeatherDisplay:10.37,2013-03-03 17:01:00,
2013-03-03 11:06:00,42.8,9.3,29.83,NNW,338,7.4,11.5,25,0.00,CLR,,0.00,WeatherDisplay:10.37,2013-03-03 17:06:00,
2013-03-03 11:11:00,42.8,9.3,29.83,WNW,292,9.2,15.0,25,0.00,CLR,,0.00,WeatherDisplay:10.37,2013-03-03 17:11:00,
2013-03-03 11:16:00,43.0,9.5,29.83,WNW,292,6.0,9.2,25,0.00,CLR,,0.00,WeatherDisplay:10.37,2013-03-03 17:16:00,
2013-03-03 11:21:00,43.3,9.8,29.83,NNW,338,10.2,13.0,25,0.00,CLR,,0.00,WeatherDisplay:10.37,2013-03-03 17:21:00,
2013-03-03 11:26:00,43.7,10.1,29.83,North,0,7.8,12.7,25,0.00,CLR,,0.00,WeatherDisplay:10.37,2013-03-03 17:26:00,
2013-03-03 11:31:00,44.8,11.0,29.83,West,270,6.9,11.5,25,0.00,CLR,,0.00,WeatherDisplay:10.37,2013-03-03 17:31:00,
2013-03-03 11:36:00,44.6,8.0,29.80,NNW,338,9.0,10.5,22,0.00,CLR,,0.00,WeatherDisplay:10.37,2013-03-03 17:36:00,
2013-03-03 11:41:00,45.1,8.5,29.80,NNE,22,8.1,10.4,22,0.00,CLR,,0.00,WeatherDisplay:10.37,2013-03-03 17:41:00,
2013-03-03 11:46:00,45.1,8.5,29.80,WNW,292,13.2,15.4,22,0.00,CLR,,0.00,WeatherDisplay:10.37,2013-03-03 17:46:00,
2013-03-03 11:51:00,45.0,8.3,29.83,West,270,7.8,11.5,22,0.00,CLR,,0.00,WeatherDisplay:10.37,2013-03-03 17:51:00,
2013-03-03 11:56:00,46.4,9.6,29.83,WNW,292,7.6,10.2,22,0.00,CLR,,0.00,WeatherDisplay:10.37,2013-03-03 17:56:00,
2013-03-03 12:01:00,46.2,9.4,29.83,North,0,7.6,8.1,22,0.00,CLR,,0.00,WeatherDisplay:10.37,2013-03-03 18:01:00,
2013-03-03 12:06:00,46.4,9.6,29.83,NW,315,5.9,12.7,22,0.00,CLR,,0.00,WeatherDisplay:10.37,2013-03-03 18:06:00,
2013-03-03 12:11:00,47.3,10.3,29.83,North,0,6.2,9.4,22,0.00,CLR,,0.00,WeatherDisplay:10.37,2013-03-03 18:11:00,
2013-03-03 12:16:00,46.8,9.9,29.83,West,270,9.0,10.4,22,0.00,CLR,,0.00,WeatherDisplay:10.37,2013-03-03 18:16:00,
2013-03-03 12:21:00,46.6,9.7,29.80,NNW,338,7.8,11.5,22,0.00,CLR,,0.00,WeatherDisplay:10.37,2013-03-03 18:21:00,
2013-03-03 12:26:00,47.3,10.3,29.80,NW,315,4.5,8.1,22,0.00,CLR,,0.00,WeatherDisplay:10.37,2013-03-03 18:26:00,
2013-03-03 12:31:00,47.5,10.5,29.80,NNW,338,10.0,12.7,22,0.00,CLR,,0.00,WeatherDisplay:10.37,2013-03-03 18:31:00,
2013-03-03 12:36:00,47.7,10.6,29.80,NNE,22,7.8,11.5,22,0.00,CLR,,0.00,WeatherDisplay:10.37,2013-03-03 18:36:00,
2013-03-03 12:41:00,47.7,7.3,29.80,WNW,292,9.2,10.5,19,0.00,CLR,,0.00,WeatherDisplay:10.37,2013-03-03 18:41:00,
2013-03-03 12:46:00,48.0,7.6,29.80,NW,315,6.4,8.7,19,0.00,CLR,,0.00,WeatherDisplay:10.37,2013-03-03 18:46:00,
2013-03-03 12:51:00,47.8,7.5,29.83,North,0,5.9,12.7,19,0.00,CLR,,0.00,WeatherDisplay:10.37,2013-03-03 18:51:00,
2013-03-03 12:56:00,49.3,8.7,29.83,NW,315,5.4,6.2,19,0.00,CLR,,0.00,WeatherDisplay:10.37,2013-03-03 18:56:00,
2013-03-03 13:01:00,48.9,8.4,29.83,WNW,292,8.7,13.8,19,0.00,CLR,,0.00,WeatherDisplay:10.37,2013-03-03 19:01:00,
2013-03-03 13:06:00,48.6,8.1,29.83,North,0,11.2,12.8,19,0.00,CLR,,0.00,WeatherDisplay:10.37,2013-03-03 19:06:00,
2013-03-03 13:11:00,49.3,8.7,29.83,West,270,4.5,5.9,19,0.00,CLR,,0.00,WeatherDisplay:10.37,2013-03-03 19:11:00,
2013-03-03 13:16:00,48.7,8.2,29.83,WNW,292,8.7,11.5,19,0.00,CLR,,0.00,WeatherDisplay:10.37,2013-03-03 19:16:00,
2013-03-03 13:21:00,49.6,9.0,29.80,NNW,338,7.8,12.1,19,0.00,CLR,,0.00,WeatherDisplay:10.37,2013-03-03 19:21:00,
2013-03-03 13:26:00,49.8,9.1,29.80,North,0,7.6,12.8,19,0.00,CLR,,0.00,WeatherDisplay:10.37,2013-03-03 19:26:00,
2013-03-03 13:31:00,49.5,8.8,29.80,NW,315,8.5,10.5,19,0.00,CLR,,0.00,WeatherDisplay:10.37,2013-03-03 19:31:00,
2013-03-03 13:36:00,50.2,9.4,29.80,WSW,248,5.6,7.8,19,0.00,CLR,,0.00,WeatherDisplay:10.37,2013-03-03 19:36:00,
2013-03-03 13:41:00,50.5,9.7,29.80,North,0,7.8,8.1,19,0.00,CLR,,0.00,WeatherDisplay:10.37,2013-03-03 19:41:00,
2013-03-03 13:46:00,50.9,10.0,29.80,West,270,7.6,10.5,19,0.00,CLR,,0.00,WeatherDisplay:10.37,2013-03-03 19:46:00,
2013-03-03 13:51:00,51.4,10.5,29.83,WNW,292,7.6,14.7,19,0.00,CLR,,0.00,WeatherDisplay:10.37,2013-03-03 19:51:00,
2013-03-03 13:56:00,51.3,10.3,29.83,North,0,5.9,8.7,19,0.00,CLR,,0.00,WeatherDisplay:10.37,2013-03-03 19:56:00,
2013-03-03 14:01:00,51.6,10.6,29.83,West,270,4.9,6.9,19,0.00,CLR,,0.00,WeatherDisplay:10.37,2013-03-03 20:01:00,
2013-03-03 14:06:00,51.6,10.6,29.83,NNW,338,8.1,12.7,19,0.00,CLR,,0.00,WeatherDisplay:10.37,2013-03-03 20:06:00,
2013-03-03 14:11:00,52.5,10.2,29.83,NNW,338,7.4,9.8,18,0.00,CLR,,0.00,WeatherDisplay:10.37,2013-03-03 20:11:00,
2013-03-03 14:16:00,52.7,10.3,29.83,North,0,5.6,6.9,18,0.00,CLR,,0.00,WeatherDisplay:10.37,2013-03-03 20:16:00,
2013-03-03 14:21:00,52.3,10.0,29.80,NW,315,7.4,9.2,18,0.00,CLR,,0.00,WeatherDisplay:10.37,2013-03-03 20:21:00,
2013-03-03 14:26:00,52.5,10.2,29.80,North,0,7.1,11.5,18,0.00,CLR,,0.00,WeatherDisplay:10.37,2013-03-03 20:26:00,
2013-03-03 14:31:00,52.5,10.2,29.80,West,270,6.2,8.5,18,0.00,CLR,,0.00,WeatherDisplay:10.37,2013-03-03 20:31:00,
2013-03-03 14:36:00,52.3,10.0,29.80,West,270,6.7,10.5,18,0.00,CLR,,0.00,WeatherDisplay:10.37,2013-03-03 20:36:00,
2013-03-03 14:41:00,52.7,10.3,29.80,NNW,338,6.9,9.2,18,0.00,CLR,,0.00,WeatherDisplay:10.37,2013-03-03 20:41:00,
2013-03-03 14:46:00,52.7,10.3,29.80,North,0,9.8,11.5,18,0.00,CLR,,0.00,WeatherDisplay:10.37,2013-03-03 20:46:00,
2013-03-03 14:51:00,52.9,10.5,29.80,NW,315,8.5,9.8,18,0.00,CLR,,0.00,WeatherDisplay:10.37,2013-03-03 20:51:00,
2013-03-03 14:56:00,52.7,10.3,29.80,North,0,9.4,10.4,18,0.00,CLR,,0.00,WeatherDisplay:10.37,2013-03-03 20:56:00,
2013-03-03 15:01:00,53.1,10.6,29.80,NW,315,7.8,13.7,18,0.00,CLR,,0.00,WeatherDisplay:10.37,2013-03-03 21:01:00,
2013-03-03 15:06:00,53.1,10.6,29.80,NW,315,6.0,10.4,18,0.00,CLR,,0.00,WeatherDisplay:10.37,2013-03-03 21:06:00,
2013-03-03 15:11:00,53.6,11.0,29.80,NNW,338,4.3,11.2,18,0.00,CLR,,0.00,WeatherDisplay:10.37,2013-03-03 21:11:00,
2013-03-03 15:16:00,53.8,11.2,29.80,NNE,22,7.1,8.7,18,0.00,CLR,,0.00,WeatherDisplay:10.37,2013-03-03 21:16:00,
2013-03-03 15:21:00,53.8,11.2,29.80,NNW,338,5.9,11.8,18,0.00,CLR,,0.00,WeatherDisplay:10.37,2013-03-03 21:21:00,
2013-03-03 15:26:00,53.2,10.8,29.80,NNW,338,6.4,10.4,18,0.00,CLR,,0.00,WeatherDisplay:10.37,2013-03-03 21:26:00,
2013-03-03 15:31:00,53.6,11.0,29.80,North,0,4.7,6.9,18,0.00,CLR,,0.00,WeatherDisplay:10.37,2013-03-03 21:31:00,
2013-03-03 15:36:00,54.1,11.5,29.80,WNW,292,4.7,9.2,18,0.00,CLR,,0.00,WeatherDisplay:10.37,2013-03-03 21:36:00,
2013-03-03 15:41:00,54.3,11.6,29.80,WNW,292,5.4,9.2,18,0.00,CLR,,0.00,WeatherDisplay:10.37,2013-03-03 21:41:00,
2013-03-03 15:46:00,54.1,11.5,29.80,WSW,248,7.4,9.8,18,0.00,CLR,,0.00,WeatherDisplay:10.37,2013-03-03 21:46:00,
2013-03-03 15:51:00,53.6,11.0,29.80,WNW,292,7.1,8.1,18,0.00,CLR,,0.00,WeatherDisplay:10.37,2013-03-03 21:51:00,
2013-03-03 15:56:00,53.8,11.2,29.80,West,270,5.9,7.6,18,0.00,CLR,,0.00,WeatherDisplay:10.37,2013-03-03 21:56:00,
2013-03-03 16:01:00,54.0,11.3,29.80,NW,315,4.9,6.9,18,0.00,CLR,,0.00,WeatherDisplay:10.37,2013-03-03 22:01:00,
2013-03-03 16:06:00,54.1,11.5,29.80,WNW,292,7.1,8.5,18,0.00,CLR,,0.00,WeatherDisplay:10.37,2013-03-03 22:06:00,
2013-03-03 16:11:00,53.6,11.0,29.80,NW,315,6.4,10.4,18,0.00,CLR,,0.00,WeatherDisplay:10.37,2013-03-03 22:11:00,
2013-03-03 16:16:00,53.6,11.0,29.80,West,270,8.1,10.0,18,0.00,CLR,,0.00,WeatherDisplay:10.37,2013-03-03 22:16:00,
2013-03-03 16:21:00,53.4,10.9,29.80,West,270,6.4,9.2,18,0.00,CLR,,0.00,WeatherDisplay:10.37,2013-03-03 22:21:00,
2013-03-03 16:26:00,53.8,11.2,29.80,WNW,292,4.0,5.8,18,0.00,CLR,,0.00,WeatherDisplay:10.37,2013-03-03 22:26:00,
2013-03-03 16:31:00,53.2,10.8,29.80,NW,315,4.0,4.9,18,0.00,CLR,,0.00,WeatherDisplay:10.37,2013-03-03 22:31:00,
2013-03-03 16:36:00,53.8,11.2,29.80,West,270,5.4,10.7,18,0.00,CLR,,0.00,WeatherDisplay:10.37,2013-03-03 22:36:00,
2013-03-03 16:41:00,53.6,11.0,29.80,North,0,5.4,8.1,18,0.00,CLR,,0.00,WeatherDisplay:10.37,2013-03-03 22:41:00,
2013-03-03 16:46:00,53.1,10.6,29.80,NW,315,7.6,9.2,18,0.00,CLR,,0.00,WeatherDisplay:10.37,2013-03-03 22:46:00,
2013-03-03 16:51:00,52.7,10.3,29.80,NW,315,7.4,9.7,18,0.00,CLR,,0.00,WeatherDisplay:10.37,2013-03-03 22:51:00,
2013-03-03 16:56:00,52.7,10.3,29.80,West,270,6.4,8.1,18,0.00,CLR,,0.00,WeatherDisplay:10.37,2013-03-03 22:56:00,
2013-03-03 17:01:00,52.9,10.5,29.80,WNW,292,4.7,5.6,18,0.00,CLR,,0.00,WeatherDisplay:10.37,2013-03-03 23:01:00,
2013-03-03 17:06:00,52.5,10.2,29.80,NW,315,4.7,5.9,18,0.00,CLR,,0.00,WeatherDisplay:10.37,2013-03-03 23:06:00,
2013-03-03 17:11:00,52.2,9.9,29.80,NNW,338,4.0,4.9,18,0.00,CLR,,0.00,WeatherDisplay:10.37,2013-03-03 23:11:00,
2013-03-03 17:16:00,51.8,9.6,29.80,West,270,3.1,6.2,18,0.00,CLR,,0.00,WeatherDisplay:10.37,2013-03-03 23:16:00,
2013-03-03 17:21:00,51.3,10.3,29.80,West,270,4.3,6.9,19,0.00,CLR,,0.00,WeatherDisplay:10.37,2013-03-03 23:21:00,
2013-03-03 17:26:00,50.7,9.9,29.80,West,270,3.8,5.8,19,0.00,CLR,,0.00,WeatherDisplay:10.37,2013-03-03 23:26:00,
2013-03-03 17:31:00,50.5,9.7,29.80,West,270,3.6,5.8,19,0.00,CLR,,0.00,WeatherDisplay:10.37,2013-03-03 23:31:00,
2013-03-03 17:36:00,50.2,9.4,29.83,West,270,2.9,4.6,19,0.00,CLR,,0.00,WeatherDisplay:10.37,2013-03-03 23:36:00,
2013-03-03 17:41:00,50.0,9.3,29.83,West,270,3.1,4.6,19,0.00,CLR,,0.00,WeatherDisplay:10.37,2013-03-03 23:41:00,
2013-03-03 17:46:00,49.5,8.8,29.83,West,270,2.2,4.6,19,0.00,CLR,,0.00,WeatherDisplay:10.37,2013-03-03 23:46:00,
2013-03-03 17:51:00,49.1,8.5,29.80,West,270,1.6,2.3,19,0.00,CLR,,0.00,WeatherDisplay:10.37,2013-03-03 23:51:00,
2013-03-03 17:56:00,48.7,8.2,29.80,SW,225,2.2,3.5,19,0.00,CLR,,0.00,WeatherDisplay:10.37,2013-03-03 23:56:00,
2013-03-03 18:01:00,48.6,8.1,29.80,West,270,1.1,2.3,19,0.00,CLR,,0.00,WeatherDisplay:10.37,2013-03-04 00:01:00,
2013-03-03 18:06:00,48.0,7.6,29.80,WNW,292,0.0,1.1,19,0.00,CLR,,0.00,WeatherDisplay:10.37,2013-03-04 00:06:00,
2013-03-03 18:11:00,47.8,7.5,29.80,West,270,0.0,0.0,19,0.00,CLR,,0.00,WeatherDisplay:10.37,2013-03-04 00:11:00,
2013-03-03 18:16:00,47.5,7.2,29.80,West,270,0.0,0.0,19,0.00,CLR,,0.00,WeatherDisplay:10.37,2013-03-04 00:16:00,
2013-03-03 18:21:00,46.9,6.7,29.80,West,270,0.0,0.0,19,0.00,CLR,,0.00,WeatherDisplay:10.37,2013-03-04 00:21:00,
2013-03-03 18:26:00,46.6,6.4,29.80,West,270,0.0,0.0,19,0.00,CLR,,0.00,WeatherDisplay:10.37,2013-03-04 00:26:00,
2013-03-03 18:31:00,46.2,7.3,29.80,West,270,0.0,0.0,20,0.00,CLR,,0.00,WeatherDisplay:10.37,2013-03-04 00:31:00,
2013-03-03 18:36:00,46.0,7.1,29.80,West,270,0.0,0.0,20,0.00,CLR,,0.00,WeatherDisplay:10.37,2013-03-04 00:36:00,
2013-03-03 18:41:00,45.9,7.0,29.80,South,180,1.6,2.0,20,0.00,CLR,,0.00,WeatherDisplay:10.37,2013-03-04 00:41:00,
2013-03-03 18:46:00,45.9,7.0,29.80,SSW,202,0.9,1.1,20,0.00,CLR,,0.00,WeatherDisplay:10.37,2013-03-04 00:46:00,
2013-03-03 18:51:00,45.7,6.8,29.80,SSW,202,1.1,1.6,20,0.00,CLR,,0.00,WeatherDisplay:10.37,2013-03-04 00:51:00,
2013-03-03 18:56:00,45.1,6.4,29.80,SSW,202,0.0,0.0,20,0.00,CLR,,0.00,WeatherDisplay:10.37,2013-03-04 00:56:00,
2013-03-03 19:01:00,44.4,8.9,29.80,North,0,0.0,0.0,23,0.00,CLR,,0.00,WeatherDisplay:10.37,2013-03-04 01:01:00,
2013-03-03 19:06:00,43.9,8.4,29.80,North,0,0.0,0.0,23,0.00,CLR,,0.00,WeatherDisplay:10.37,2013-03-04 01:06:00,
2013-03-03 19:11:00,43.3,8.0,29.80,North,0,0.0,0.0,23,0.00,CLR,,0.00,WeatherDisplay:10.37,2013-03-04 01:11:00,
2013-03-03 19:16:00,43.0,7.6,29.80,North,0,0.0,0.0,23,0.00,CLR,,0.00,WeatherDisplay:10.37,2013-03-04 01:16:00,
2013-03-03 19:22:00,42.6,7.3,29.83,North,0,0.0,0.0,23,0.00,CLR,,0.00,WeatherDisplay:10.37,2013-03-04 01:22:00,
2013-03-03 19:27:00,42.4,7.2,29.83,North,0,0.0,0.0,23,0.00,CLR,,0.00,WeatherDisplay:10.37,2013-03-04 01:27:00,
2013-03-03 19:32:00,42.3,7.0,29.83,South,180,2.2,4.6,23,0.00,CLR,,0.00,WeatherDisplay:10.37,2013-03-04 01:32:00,
2013-03-03 19:37:00,42.1,9.6,29.83,SW,225,0.0,1.1,26,0.00,CLR,,0.00,WeatherDisplay:10.37,2013-03-04 01:37:00,
2013-03-03 19:42:00,41.7,9.3,29.83,WSW,248,0.0,0.0,26,0.00,CLR,,0.00,WeatherDisplay:10.37,2013-03-04 01:42:00,
2013-03-03 19:47:00,41.5,9.1,29.83,SW,225,0.0,0.0,26,0.00,CLR,,0.00,WeatherDisplay:10.37,2013-03-04 01:47:00,
2013-03-03 19:52:00,41.4,9.0,29.83,SSW,202,2.0,2.6,26,0.00,CLR,,0.00,WeatherDisplay:10.37,2013-03-04 01:52:00,
2013-03-03 19:58:00,41.2,8.8,29.83,SW,225,0.0,1.1,26,0.00,CLR,,0.00,WeatherDisplay:10.37,2013-03-04 01:58:00,
2013-03-03 20:03:00,41.2,10.5,29.83,WSW,248,0.0,0.0,28,0.00,CLR,,0.00,WeatherDisplay:10.37,2013-03-04 02:03:00,
2013-03-03 20:08:00,40.8,10.2,29.83,WSW,248,0.0,0.0,28,0.00,CLR,,0.00,WeatherDisplay:10.37,2013-03-04 02:08:00,
2013-03-03 20:14:00,40.5,10.7,29.83,SE,135,0.0,0.0,29,0.00,CLR,,0.00,WeatherDisplay:10.37,2013-03-04 02:14:00,
2013-03-03 20:19:00,40.6,11.6,29.83,East,90,0.0,0.0,30,0.00,CLR,,0.00,WeatherDisplay:10.37,2013-03-04 02:19:00,
2013-03-03 20:24:00,40.5,11.4,29.83,East,90,0.0,0.0,30,0.00,CLR,,0.00,WeatherDisplay:10.37,2013-03-04 02:24:00,
2013-03-03 20:29:00,40.3,11.3,29.83,East,90,0.0,0.0,30,0.00,CLR,,0.00,WeatherDisplay:10.37,2013-03-04 02:29:00,
2013-03-03 20:34:00,39.9,10.9,29.83,East,90,0.0,0.0,30,0.00,CLR,,0.00,WeatherDisplay:10.37,2013-03-04 02:34:00,
2013-03-03 20:39:00,39.6,10.6,29.83,East,90,0.0,0.0,30,0.00,CLR,,0.00,WeatherDisplay:10.37,2013-03-04 02:39:00,
2013-03-03 20:44:00,39.7,11.5,29.83,ESE,112,0.0,0.0,31,0.00,CLR,,0.00,WeatherDisplay:10.37,2013-03-04 02:44:00,
2013-03-03 20:49:00,39.7,12.2,29.83,ESE,112,0.0,0.0,32,0.00,CLR,,0.00,WeatherDisplay:10.37,2013-03-04 02:49:00,
2013-03-03 20:54:00,39.2,12.5,29.83,ESE,112,0.0,0.0,33,0.00,CLR,,0.00,WeatherDisplay:10.37,2013-03-04 02:54:00,
2013-03-03 20:59:00,39.2,12.5,29.83,ESE,112,0.0,0.0,33,0.00,CLR,,0.00,WeatherDisplay:10.37,2013-03-04 02:59:00,
2013-03-03 21:04:00,39.2,12.5,29.83,ESE,112,0.0,0.0,33,0.00,CLR,,0.00,WeatherDisplay:10.37,2013-03-04 03:04:00,
2013-03-03 21:09:00,39.2,13.8,29.83,ESE,112,0.0,0.0,35,0.00,CLR,,0.00,WeatherDisplay:10.37,2013-03-04 03:09:00,
2013-03-03 21:14:00,38.8,14.1,29.83,ESE,112,0.0,0.0,36,0.00,CLR,,0.00,WeatherDisplay:10.37,2013-03-04 03:14:00,
2013-03-03 21:19:00,38.8,15.4,29.83,ESE,112,0.0,0.0,38,0.00,CLR,,0.00,WeatherDisplay:10.37,2013-03-04 03:19:00,
2013-03-03 21:24:00,38.7,15.2,29.83,ESE,112,0.0,0.0,38,0.00,CLR,,0.00,WeatherDisplay:10.37,2013-03-04 03:24:00,
2013-03-03 21:29:00,38.3,14.9,29.83,ESE,112,0.0,0.0,38,0.00,CLR,,0.00,WeatherDisplay:10.37,2013-03-04 03:29:00,
2013-03-03 21:34:00,38.1,13.5,29.83,ESE,112,0.0,0.0,36,0.00,CLR,,0.00,WeatherDisplay:10.37,2013-03-04 03:34:00,
2013-03-03 21:39:00,38.1,14.1,29.83,ESE,112,0.0,0.0,37,0.00,CLR,,0.00,WeatherDisplay:10.37,2013-03-04 03:39:00,
2013-03-03 21:44:00,38.1,14.7,29.83,ESE,112,0.0,0.0,38,0.00,CLR,,0.00,WeatherDisplay:10.37,2013-03-04 03:44:00,
2013-03-03 21:49:00,38.1,15.3,29.80,SE,135,0.0,0.0,39,0.00,CLR,,0.00,WeatherDisplay:10.37,2013-03-04 03:49:00,
2013-03-03 21:54:00,37.9,15.1,29.80,East,90,0.0,0.0,39,0.00,CLR,,0.00,WeatherDisplay:10.37,2013-03-04 03:54:00,
2013-03-03 21:59:00,37.6,15.4,29.80,East,90,0.0,0.0,40,0.00,CLR,,0.00,WeatherDisplay:10.37,2013-03-04 03:59:00,
2013-03-03 22:04:00,37.6,15.4,29.83,East,90,0.0,0.0,40,0.00,CLR,,0.00,WeatherDisplay:10.37,2013-03-04 04:04:00,
2013-03-03 22:09:00,37.4,15.2,29.83,East,90,0.0,0.0,40,0.00,CLR,,0.00,WeatherDisplay:10.37,2013-03-04 04:09:00,
2013-03-03 22:14:00,37.2,15.1,29.83,East,90,0.0,0.0,40,0.00,CLR,,0.00,WeatherDisplay:10.37,2013-03-04 04:14:00,
2013-03-03 22:19:00,37.4,15.2,29.83,ESE,112,0.0,0.0,40,0.00,CLR,,0.00,WeatherDisplay:10.37,2013-03-04 04:19:00,
2013-03-03 22:24:00,37.4,15.2,29.83,East,90,0.0,0.0,40,0.00,CLR,,0.00,WeatherDisplay:10.37,2013-03-04 04:24:00,
2013-03-03 22:29:00,37.4,15.8,29.83,East,90,0.0,0.0,41,0.00,CLR,,0.00,WeatherDisplay:10.37,2013-03-04 04:29:00,
2013-03-03 22:34:00,37.2,16.2,29.80,ESE,112,0.0,0.0,42,0.00,CLR,,0.00,WeatherDisplay:10.37,2013-03-04 04:34:00,
2013-03-03 22:39:00,37.0,16.0,29.80,WSW,248,0.0,0.0,42,0.00,CLR,,0.00,WeatherDisplay:10.37,2013-03-04 04:39:00,
2013-03-03 22:44:00,37.0,16.0,29.80,SW,225,0.0,0.0,42,0.00,CLR,,0.00,WeatherDisplay:10.37,2013-03-04 04:44:00,
2013-03-03 22:49:00,37.6,16.5,29.80,SSW,202,0.0,0.0,42,0.00,CLR,,0.00,WeatherDisplay:10.37,2013-03-04 04:49:00,
2013-03-03 22:54:00,38.1,17.6,29.80,South,180,0.0,0.0,43,0.00,CLR,,0.00,WeatherDisplay:10.37,2013-03-04 04:54:00,
2013-03-03 22:59:00,38.3,17.7,29.80,ESE,112,0.0,0.0,43,0.00,CLR,,0.00,WeatherDisplay:10.37,2013-03-04 04:59:00,
2013-03-03 23:00:00,38.1,18.1,29.80,ESE,112,0.0,0.0,44,0.00,CLR,,0.00,WeatherDisplay:10.37,2013-03-04 05:00:00,
2013-03-03 23:01:00,38.1,18.1,29.80,ESE,112,0.0,0.0,44,0.00,CLR,,0.00,WeatherDisplay:10.37,2013-03-04 05:01:00,
2013-03-03 23:06:00,37.8,17.2,29.80,ESE,112,0.0,0.0,43,0.00,CLR,,0.00,WeatherDisplay:10.37,2013-03-04 05:06:00,
2013-03-03 23:12:00,37.4,16.9,29.80,ESE,112,0.0,0.0,43,0.00,CLR,,0.00,WeatherDisplay:10.37,2013-03-04 05:12:00,
2013-03-03 23:17:00,36.9,16.4,29.80,ESE,112,0.0,0.0,43,0.00,CLR,,0.00,WeatherDisplay:10.37,2013-03-04 05:17:00,
2013-03-03 23:22:00,36.5,16.1,29.80,ESE,112,0.0,0.0,43,0.00,CLR,,0.00,WeatherDisplay:10.37,2013-03-04 05:22:00,
2013-03-03 23:27:00,36.3,15.9,29.80,ESE,112,0.0,0.0,43,0.00,CLR,,0.00,WeatherDisplay:10.37,2013-03-04 05:27:00,
2013-03-03 23:32:00,36.1,15.8,29.77,ESE,112,0.0,0.0,43,0.00,CLR,,0.00,WeatherDisplay:10.37,2013-03-04 05:32:00,
2013-03-03 23:35:00,36.0,16.1,29.77,ESE,112,0.0,0.0,44,0.00,CLR,,0.00,WeatherDisplay:10.37,2013-03-04 05:35:00,
2013-03-03 23:40:00,35.8,16.0,29.77,ESE,112,0.0,0.0,44,0.00,CLR,,0.00,WeatherDisplay:10.37,2013-03-04 05:40:00,
2013-03-03 23:45:00,35.6,15.8,29.77,ESE,112,0.0,0.0,44,0.00,CLR,,0.00,WeatherDisplay:10.37,2013-03-04 05:45:00,
2013-03-03 23:50:00,35.4,15.6,29.80,ESE,112,0.0,0.0,44,0.00,CLR,,0.00,WeatherDisplay:10.37,2013-03-04 05:50:00,
2013-03-03 23:55:00,35.2,15.5,29.80,ESE,112,0.0,0.0,44,0.00,CLR,,0.00,WeatherDisplay:10.37,2013-03-04 05:55:00,